createdAt,value
2016-09-11T00:00:58.522Z,0
2016-09-11T00:01:58.533Z,0
2016-09-11T00:02:58.590Z,0
2016-09-11T00:04:13.507Z,0
2016-09-11T00:05:13.545Z,0
2016-09-11T00:05:58.653Z,0
2016-09-11T00:06:58.660Z,0
2016-09-11T00:07:58.683Z,0
2016-09-11T00:09:13.736Z,0
2016-09-11T00:09:59.056Z,0
2016-09-11T00:10:58.916Z,0
2016-09-11T00:11:58.798Z,0
2016-09-11T00:12:58.820Z,0
2016-09-11T00:13:58.959Z,0
2016-09-11T00:14:59.176Z,0
2016-09-11T00:15:58.902Z,0
2016-09-11T00:16:58.969Z,0
2016-09-11T00:17:59.262Z,0
2016-09-11T00:18:58.978Z,0
2016-09-11T00:19:58.993Z,0
2016-09-11T00:20:59.543Z,0
2016-09-11T00:21:59.059Z,0
2016-09-11T00:22:59.105Z,0
2016-09-11T00:24:59.133Z,0
2016-09-11T00:25:59.164Z,0
2016-09-11T00:26:59.204Z,0
2016-09-11T00:27:59.208Z,0
2016-09-11T00:28:59.569Z,0
2016-09-11T00:29:59.272Z,0
2016-09-11T00:30:59.730Z,0
2016-09-11T00:31:59.656Z,0
2016-09-11T00:32:59.342Z,0
2016-09-11T00:33:59.999Z,0
2016-09-11T00:35:14.367Z,0
2016-09-11T00:36:14.340Z,0
2016-09-11T00:36:59.759Z,0
2016-09-11T00:37:59.812Z,0
2016-09-11T00:38:59.504Z,0
2016-09-11T00:39:59.822Z,0
2016-09-11T00:41:14.810Z,0
2016-09-11T00:41:59.660Z,0
2016-09-11T00:42:59.603Z,0
2016-09-11T00:43:59.665Z,0
2016-09-11T00:44:59.655Z,0
2016-09-11T00:45:59.692Z,0
2016-09-11T00:47:00.077Z,0
2016-09-11T00:47:59.732Z,0
2016-09-11T00:49:14.710Z,0
2016-09-11T00:50:59.847Z,0
2016-09-11T00:52:14.755Z,0
2016-09-11T00:52:59.860Z,0
2016-09-11T00:54:00.217Z,0
2016-09-11T00:54:59.998Z,0
2016-09-11T00:55:59.942Z,0
2016-09-11T00:57:29.848Z,0
2016-09-11T00:58:00.297Z,0
2016-09-11T00:59:00.031Z,0
2016-09-11T01:00:00.132Z,0
2016-09-11T01:02:00.664Z,0
2016-09-11T01:03:00.182Z,0
2016-09-11T01:04:00.181Z,0
2016-09-11T01:05:15.293Z,0
2016-09-11T01:06:00.278Z,0
2016-09-11T01:07:00.261Z,0
2016-09-11T01:08:00.289Z,0
2016-09-11T01:09:00.586Z,0
2016-09-11T01:10:00.342Z,0
2016-09-11T01:11:15.329Z,0
2016-09-11T01:12:15.306Z,0
2016-09-11T01:13:15.289Z,0
2016-09-11T01:14:00.742Z,0
2016-09-11T01:15:00.447Z,0
2016-09-11T01:16:15.369Z,0
2016-09-11T01:17:00.484Z,0
2016-09-11T01:18:00.933Z,0
2016-09-11T01:19:00.832Z,0
2016-09-11T01:20:15.478Z,0
2016-09-11T01:21:00.606Z,0
2016-09-11T01:22:01.199Z,0
2016-09-11T01:23:00.646Z,0
2016-09-11T01:24:00.749Z,0
2016-09-11T01:25:00.683Z,0
2016-09-11T01:26:00.828Z,0
2016-09-11T01:27:00.740Z,0
2016-09-11T01:28:00.757Z,0
2016-09-11T01:29:15.709Z,0
2016-09-11T01:30:00.819Z,0
2016-09-11T01:31:00.837Z,0
2016-09-11T01:32:01.006Z,0
2016-09-11T01:33:00.937Z,0
2016-09-11T01:34:00.906Z,0
2016-09-11T01:36:00.963Z,0
2016-09-11T01:37:01.012Z,0
2016-09-11T01:38:01.095Z,0
2016-09-11T01:39:01.067Z,0
2016-09-11T01:40:01.076Z,0
2016-09-11T01:41:01.148Z,0
2016-09-11T01:42:01.111Z,0
2016-09-11T01:43:01.146Z,0
2016-09-11T01:44:16.144Z,0
2016-09-11T01:45:16.194Z,0
2016-09-11T01:46:01.644Z,0
2016-09-11T01:47:01.251Z,0
2016-09-11T01:48:01.285Z,0
2016-09-11T01:49:02.436Z,0
2016-09-11T01:51:01.638Z,0
2016-09-11T01:52:01.387Z,0
2016-09-11T01:53:02.145Z,0
2016-09-11T01:54:01.681Z,0
2016-09-11T01:55:01.515Z,0
2016-09-11T01:56:01.476Z,0
2016-09-11T01:57:16.476Z,0
2016-09-11T01:58:01.679Z,0
2016-09-11T01:59:16.546Z,0
2016-09-11T02:00:02.578Z,0
2016-09-11T02:01:02.186Z,0
2016-09-11T02:02:01.656Z,0
2016-09-11T02:03:02.966Z,0
2016-09-11T02:06:01.737Z,0
2016-09-11T02:07:02.191Z,0
2016-09-11T02:08:01.782Z,0
2016-09-11T02:09:02.330Z,0
2016-09-11T02:10:02.242Z,0
2016-09-11T02:12:01.906Z,0
2016-09-11T02:13:01.947Z,0
2016-09-11T02:14:16.867Z,0
2016-09-11T02:15:02.647Z,0
2016-09-11T02:16:16.924Z,0
2016-09-11T02:17:02.341Z,0
2016-09-11T02:18:02.218Z,0
2016-09-11T02:19:02.544Z,0
2016-09-11T02:20:02.571Z,0
2016-09-11T02:21:02.217Z,0
2016-09-11T02:22:02.543Z,0
2016-09-11T02:23:02.241Z,0
2016-09-11T02:24:02.518Z,0
2016-09-11T02:25:02.464Z,0
2016-09-11T02:26:17.477Z,0
2016-09-11T02:27:02.285Z,0
2016-09-11T02:28:02.305Z,0
2016-09-11T02:29:17.246Z,0
2016-09-11T02:30:03.776Z,0
2016-09-11T02:31:02.380Z,0
2016-09-11T02:32:17.346Z,0
2016-09-11T02:33:02.536Z,0
2016-09-11T02:34:17.683Z,0
2016-09-11T02:35:02.541Z,0
2016-09-11T02:36:02.818Z,0
2016-09-11T02:37:02.869Z,0
2016-09-11T02:39:03.082Z,0
2016-09-11T02:40:03.051Z,0
2016-09-11T02:41:02.645Z,0
2016-09-11T02:42:03.017Z,0
2016-09-11T02:44:02.788Z,0
2016-09-11T02:45:02.831Z,0
2016-09-11T02:46:02.763Z,0
2016-09-11T02:47:03.140Z,0
2016-09-11T02:48:17.891Z,0
2016-09-11T02:49:02.902Z,0
2016-09-11T02:50:02.917Z,0
2016-09-11T02:51:03.086Z,0
2016-09-11T02:52:17.852Z,0
2016-09-11T02:53:03.279Z,0
2016-09-11T02:54:03.007Z,0
2016-09-11T02:55:03.015Z,0
2016-09-11T02:56:03.514Z,0
2016-09-11T02:57:03.118Z,0
2016-09-11T02:58:03.087Z,0
2016-09-11T02:59:03.789Z,0
2016-09-11T03:01:03.475Z,0
2016-09-11T03:03:03.196Z,0
2016-09-11T03:07:03.343Z,0
2016-09-11T03:08:03.380Z,0
2016-09-11T03:09:03.364Z,0
2016-09-11T03:10:04.459Z,0
2016-09-11T03:11:03.465Z,0
2016-09-11T03:12:03.476Z,0
2016-09-11T03:13:18.425Z,0
2016-09-11T03:14:03.529Z,0
2016-09-11T03:15:04.929Z,0
2016-09-11T03:16:03.898Z,0
2016-09-11T03:17:03.573Z,0
2016-09-11T03:18:04.399Z,0
2016-09-11T03:19:18.573Z,0
2016-09-11T03:22:03.785Z,0
2016-09-11T03:23:04.083Z,0
2016-09-11T03:24:03.945Z,0
2016-09-11T03:25:03.863Z,0
2016-09-11T03:26:04.146Z,0
2016-09-11T03:27:03.895Z,0
2016-09-11T03:28:03.849Z,0
2016-09-11T03:29:03.953Z,0
2016-09-11T03:31:03.952Z,0
2016-09-11T03:32:03.984Z,0
2016-09-11T03:33:04.013Z,0
2016-09-11T03:34:04.034Z,0
2016-09-11T03:35:04.977Z,0
2016-09-11T03:36:18.998Z,0
2016-09-11T03:37:04.467Z,0
2016-09-11T03:38:04.102Z,0
2016-09-11T03:39:04.437Z,0
2016-09-11T03:41:04.183Z,0
2016-09-11T03:42:04.267Z,0
2016-09-11T03:43:04.258Z,0
2016-09-11T03:44:04.728Z,0
2016-09-11T03:45:04.984Z,0
2016-09-11T03:46:04.376Z,0
2016-09-11T03:47:04.527Z,0
2016-09-11T03:48:04.371Z,0
2016-09-11T03:49:04.733Z,0
2016-09-11T03:50:05.058Z,0
2016-09-11T03:51:19.358Z,0
2016-09-11T03:52:04.501Z,0
2016-09-11T03:53:04.742Z,0
2016-09-11T03:54:04.826Z,0
2016-09-11T03:55:04.979Z,0
2016-09-11T03:57:04.915Z,0
2016-09-11T03:58:04.707Z,0
2016-09-11T03:59:05.284Z,4
2016-09-11T04:00:19.823Z,0
2016-09-11T04:01:04.704Z,0
2016-09-11T04:03:05.057Z,0
2016-09-11T04:04:05.834Z,4
2016-09-11T04:05:05.572Z,4
2016-09-11T04:06:05.063Z,4
2016-09-11T04:07:19.769Z,8
2016-09-11T04:09:04.944Z,12
2016-09-11T04:10:04.976Z,12
2016-09-11T04:11:19.931Z,16
2016-09-11T04:12:05.261Z,16
2016-09-11T04:13:04.991Z,20
2016-09-11T04:14:05.126Z,24
2016-09-11T04:15:05.050Z,28
2016-09-11T04:16:05.071Z,32
2016-09-11T04:17:20.039Z,36
2016-09-11T04:18:20.042Z,44
2016-09-11T04:19:20.066Z,48
2016-09-11T04:20:05.246Z,52
2016-09-11T04:21:20.129Z,64
2016-09-11T04:22:20.156Z,72
2016-09-11T04:23:20.177Z,80
2016-09-11T04:24:05.508Z,88
2016-09-11T04:25:14.598Z,100
2016-09-11T04:26:05.634Z,112
2016-09-11T04:27:05.441Z,124
2016-09-11T04:28:05.367Z,136
2016-09-11T04:29:05.396Z,148
2016-09-11T04:30:05.422Z,160
2016-09-11T04:31:05.473Z,176
2016-09-11T04:32:05.475Z,188
2016-09-11T04:33:05.488Z,200
2016-09-11T04:34:05.518Z,216
2016-09-11T04:35:05.552Z,228
2016-09-11T04:36:20.499Z,248
2016-09-11T04:37:05.618Z,260
2016-09-11T04:39:20.579Z,296
2016-09-11T04:40:05.683Z,312
2016-09-11T04:41:05.702Z,328
2016-09-11T04:42:05.725Z,348
2016-09-11T04:43:05.748Z,368
2016-09-11T04:44:05.774Z,392
2016-09-11T04:45:05.802Z,416
2016-09-11T04:46:05.824Z,440
2016-09-11T04:47:05.856Z,472
2016-09-11T04:48:20.808Z,512
2016-09-11T04:49:05.905Z,540
2016-09-11T04:50:05.929Z,584
2016-09-11T04:51:05.954Z,628
2016-09-11T04:52:05.979Z,680
2016-09-11T04:53:06.013Z,736
2016-09-11T04:54:20.979Z,816
2016-09-11T04:55:06.072Z,864
2016-09-11T04:56:06.091Z,940
2016-09-11T04:57:06.120Z,1020
2016-09-11T04:58:06.185Z,1108
2016-09-11T04:59:06.166Z,1192
2016-09-11T05:00:06.188Z,1288
2016-09-11T05:01:06.210Z,1388
2016-09-11T05:02:06.289Z,1496
2016-09-11T05:03:06.263Z,1604
2016-09-11T05:04:06.374Z,1716
2016-09-11T05:05:21.242Z,1860
2016-09-11T05:06:21.283Z,1976
2016-09-11T05:07:06.395Z,2068
2016-09-11T05:08:06.392Z,2184
2016-09-11T05:09:06.412Z,2304
2016-09-11T05:10:06.524Z,2424
2016-09-11T05:11:06.474Z,2536
2016-09-11T05:12:06.540Z,2652
2016-09-11T05:13:06.517Z,2768
2016-09-11T05:14:06.543Z,2876
2016-09-11T05:15:06.568Z,2984
2016-09-11T05:16:06.593Z,3088
2016-09-11T05:17:06.621Z,3196
2016-09-11T05:18:06.645Z,3304
2016-09-11T05:19:06.671Z,3416
2016-09-11T05:20:06.699Z,3540
2016-09-11T05:21:06.731Z,3704
2016-09-11T05:22:06.753Z,3816
2016-09-11T05:23:06.775Z,3916
2016-09-11T05:24:06.799Z,4048
2016-09-11T05:25:06.824Z,4164
2016-09-11T05:26:21.770Z,4392
2016-09-11T05:27:06.883Z,4472
2016-09-11T05:28:06.930Z,4576
2016-09-11T05:29:06.929Z,4716
2016-09-11T05:30:07.026Z,4876
2016-09-11T05:31:06.974Z,5032
2016-09-11T05:32:07.006Z,5196
2016-09-11T05:33:07.025Z,5372
2016-09-11T05:34:07.061Z,5544
2016-09-11T05:35:07.082Z,5712
2016-09-11T05:36:07.111Z,5884
2016-09-11T05:37:07.147Z,6056
2016-09-11T05:38:07.169Z,6236
2016-09-11T05:39:22.127Z,6484
2016-09-11T05:40:07.211Z,6808
2016-09-11T05:41:07.242Z,7184
2016-09-11T05:42:22.187Z,7616
2016-09-11T05:43:07.289Z,8004
2016-09-11T05:44:07.313Z,7932
2016-09-11T05:45:07.339Z,7596
2016-09-11T05:46:07.367Z,7652
2016-09-11T05:47:07.391Z,7976
2016-09-11T05:48:07.417Z,8180
2016-09-11T05:50:07.478Z,9080
2016-09-11T05:51:07.507Z,10312
2016-09-11T05:52:22.448Z,10436
2016-09-11T05:53:07.857Z,12556
2016-09-11T05:54:22.516Z,17056
2016-09-11T05:55:07.597Z,17600
2016-09-11T05:56:07.635Z,19296
2016-09-11T05:57:07.660Z,20896
2016-09-11T05:58:22.613Z,21984
2016-09-11T05:59:22.628Z,22848
2016-09-11T06:00:07.753Z,23552
2016-09-11T06:01:08.054Z,24576
2016-09-11T06:02:07.786Z,24960
2016-09-11T06:03:07.816Z,24768
2016-09-11T06:04:07.897Z,24768
2016-09-11T06:05:07.919Z,25440
2016-09-11T06:06:07.897Z,26272
2016-09-11T06:07:08.046Z,27200
2016-09-11T06:08:07.970Z,27456
2016-09-11T06:09:07.979Z,27296
2016-09-11T06:10:22.941Z,26464
2016-09-11T06:11:22.975Z,27360
2016-09-11T06:12:08.775Z,28896
2016-09-11T06:13:08.399Z,29952
2016-09-11T06:16:08.530Z,30240
2016-09-11T06:17:08.273Z,29184
2016-09-11T06:18:08.572Z,30336
2016-09-11T06:19:23.284Z,32864
2016-09-11T06:20:09.395Z,33664
2016-09-11T06:21:08.714Z,34016
2016-09-11T06:22:08.391Z,34016
2016-09-11T06:23:08.428Z,33696
2016-09-11T06:24:08.490Z,35168
2016-09-11T06:25:11.659Z,35712
2016-09-11T06:26:08.849Z,36896
2016-09-11T06:27:23.561Z,37024
2016-09-11T06:28:08.905Z,37216
2016-09-11T06:29:23.531Z,37920
2016-09-11T06:31:23.625Z,39264
2016-09-11T06:34:09.095Z,41120
2016-09-11T06:35:09.182Z,41280
2016-09-11T06:36:09.141Z,41600
2016-09-11T06:37:24.161Z,42656
2016-09-11T06:38:09.059Z,41472
2016-09-11T06:39:08.956Z,40704
2016-09-11T06:40:09.155Z,42208
2016-09-11T06:41:09.391Z,43936
2016-09-11T06:42:09.074Z,43040
2016-09-11T06:43:09.087Z,42112
2016-09-11T06:44:09.170Z,43040
2016-09-11T06:46:09.332Z,42080
2016-09-11T06:47:09.367Z,43168
2016-09-11T06:48:09.305Z,43360
2016-09-11T06:49:09.339Z,44288
2016-09-11T06:50:10.228Z,45536
2016-09-11T06:51:09.534Z,44896
2016-09-11T06:52:09.373Z,45696
2016-09-11T06:53:10.575Z,46720
2016-09-11T06:54:24.374Z,44736
2016-09-11T06:55:09.856Z,45440
2016-09-11T06:56:09.544Z,47680
2016-09-11T06:57:09.538Z,47008
2016-09-11T06:58:24.506Z,46720
2016-09-11T06:59:09.646Z,47264
2016-09-11T07:00:10.574Z,47584
2016-09-11T07:01:24.590Z,46176
2016-09-11T07:02:09.721Z,44416
2016-09-11T07:03:09.745Z,46784
2016-09-11T07:04:24.839Z,49696
2016-09-11T07:05:09.853Z,50528
2016-09-11T07:06:25.089Z,48992
2016-09-11T07:07:09.913Z,48480
2016-09-11T07:08:09.993Z,46720
2016-09-11T07:09:09.998Z,44320
2016-09-11T07:10:10.235Z,45888
2016-09-11T07:11:10.032Z,47328
2016-09-11T07:13:25.032Z,49248
2016-09-11T07:14:10.158Z,49952
2016-09-11T07:15:10.290Z,45088
2016-09-11T07:16:25.136Z,47424
2016-09-11T07:17:25.159Z,48000
2016-09-11T07:18:10.422Z,46336
2016-09-11T07:19:10.694Z,45440
2016-09-11T07:20:10.344Z,46848
2016-09-11T07:21:10.425Z,48928
2016-09-11T07:22:10.745Z,47904
2016-09-11T07:23:10.618Z,48032
2016-09-11T07:24:10.494Z,46656
2016-09-11T07:25:10.637Z,45696
2016-09-11T07:26:10.607Z,48672
2016-09-11T07:27:10.956Z,47264
2016-09-11T07:28:10.697Z,46784
2016-09-11T07:29:11.021Z,47648
2016-09-11T07:31:10.754Z,44800
2016-09-11T07:32:11.506Z,46848
2016-09-11T07:33:25.727Z,45504
2016-09-11T07:34:25.771Z,45216
2016-09-11T07:35:10.889Z,47456
2016-09-11T07:37:26.363Z,46464
2016-09-11T07:38:12.267Z,46528
2016-09-11T07:39:11.434Z,43552
2016-09-11T07:42:11.138Z,45888
2016-09-11T07:43:26.098Z,44736
2016-09-11T07:44:11.308Z,44480
2016-09-11T07:45:26.336Z,44224
2016-09-11T07:46:11.281Z,43968
2016-09-11T07:47:11.341Z,42272
2016-09-11T07:48:11.338Z,38176
2016-09-11T07:50:11.536Z,44448
2016-09-11T07:51:11.895Z,44224
2016-09-11T07:52:26.427Z,43520
2016-09-11T07:53:11.567Z,44320
2016-09-11T07:54:11.568Z,45056
2016-09-11T07:55:11.957Z,43008
2016-09-11T07:56:12.372Z,43008
2016-09-11T07:57:11.660Z,43008
2016-09-11T07:58:12.301Z,42048
2016-09-11T07:59:11.745Z,40864
2016-09-11T08:00:11.769Z,40160
2016-09-11T08:01:12.477Z,40640
2016-09-11T08:02:11.848Z,42112
2016-09-11T08:03:26.807Z,42880
2016-09-11T08:04:41.773Z,41760
2016-09-11T08:05:12.115Z,41632
2016-09-11T08:06:12.010Z,41376
2016-09-11T08:07:12.062Z,40352
2016-09-11T08:08:27.300Z,40608
2016-09-11T08:09:12.474Z,40352
2016-09-11T08:10:12.126Z,39328
2016-09-11T08:11:27.449Z,38528
2016-09-11T08:12:12.322Z,37920
2016-09-11T08:13:12.594Z,37472
2016-09-11T08:14:12.300Z,37472
2016-09-11T08:15:12.344Z,35808
2016-09-11T08:17:12.411Z,37312
2016-09-11T08:18:27.397Z,35200
2016-09-11T08:19:12.480Z,34688
2016-09-11T08:20:12.671Z,34880
2016-09-11T08:21:12.608Z,34368
2016-09-11T08:22:12.585Z,34016
2016-09-11T08:23:12.674Z,34016
2016-09-11T08:24:12.943Z,32864
2016-09-11T08:25:12.831Z,32960
2016-09-11T08:26:12.938Z,32672
2016-09-11T08:28:13.418Z,33568
2016-09-11T08:29:12.812Z,30784
2016-09-11T08:30:12.976Z,26464
2016-09-11T08:31:27.816Z,25440
2016-09-11T08:32:27.844Z,24032
2016-09-11T08:33:12.982Z,23040
2016-09-11T08:34:12.997Z,22336
2016-09-11T08:35:13.123Z,22496
2016-09-11T08:36:27.992Z,22432
2016-09-11T08:37:28.050Z,22272
2016-09-11T08:38:13.132Z,22240
2016-09-11T08:39:13.185Z,21792
2016-09-11T08:40:13.216Z,21184
2016-09-11T08:41:13.259Z,20736
2016-09-11T08:42:13.576Z,20416
2016-09-11T08:43:13.543Z,20288
2016-09-11T08:44:13.640Z,20224
2016-09-11T08:45:28.617Z,20128
2016-09-11T08:47:13.457Z,19968
2016-09-11T08:48:28.417Z,19776
2016-09-11T08:49:13.547Z,19712
2016-09-11T08:50:13.589Z,19616
2016-09-11T08:51:13.595Z,19392
2016-09-11T08:52:28.569Z,19296
2016-09-11T08:53:14.016Z,19264
2016-09-11T08:54:13.759Z,19104
2016-09-11T08:55:13.750Z,19008
2016-09-11T08:56:13.813Z,18976
2016-09-11T08:57:14.120Z,18912
2016-09-11T08:58:14.150Z,18784
2016-09-11T08:59:14.505Z,18752
2016-09-11T09:00:14.227Z,18720
2016-09-11T09:01:13.985Z,18624
2016-09-11T09:02:13.982Z,18528
2016-09-11T09:03:14.028Z,18496
2016-09-11T09:04:14.283Z,18432
2016-09-11T09:05:14.160Z,18336
2016-09-11T09:06:14.137Z,18240
2016-09-11T09:08:29.126Z,18112
2016-09-11T09:09:15.064Z,18080
2016-09-11T09:10:14.289Z,17984
2016-09-11T09:11:14.753Z,17952
2016-09-11T09:12:14.362Z,17856
2016-09-11T09:13:14.483Z,17792
2016-09-11T09:14:15.133Z,17696
2016-09-11T09:15:14.446Z,17600
2016-09-11T09:16:14.780Z,17344
2016-09-11T09:17:29.447Z,17212
2016-09-11T09:18:14.628Z,17168
2016-09-11T09:19:14.858Z,17108
2016-09-11T09:20:14.709Z,17036
2016-09-11T09:21:29.583Z,16936
2016-09-11T09:22:14.712Z,16844
2016-09-11T09:23:14.736Z,16792
2016-09-11T09:24:29.965Z,16684
2016-09-11T09:25:14.804Z,16648
2016-09-11T09:26:15.456Z,16564
2016-09-11T09:27:14.887Z,16456
2016-09-11T09:28:14.978Z,16396
2016-09-11T09:29:15.274Z,16352
2016-09-11T09:30:15.318Z,16284
2016-09-11T09:31:15.014Z,16232
2016-09-11T09:32:15.378Z,16136
2016-09-11T09:33:15.097Z,16116
2016-09-11T09:34:15.121Z,15996
2016-09-11T09:35:15.209Z,15868
2016-09-11T09:36:15.187Z,15820
2016-09-11T09:37:15.235Z,15788
2016-09-11T09:38:30.740Z,15660
2016-09-11T09:39:30.628Z,15576
2016-09-11T09:40:15.355Z,15560
2016-09-11T09:41:15.378Z,15488
2016-09-11T09:42:15.514Z,15400
2016-09-11T09:43:15.486Z,15328
2016-09-11T09:44:15.486Z,15224
2016-09-11T09:45:15.811Z,15124
2016-09-11T09:46:15.557Z,15048
2016-09-11T09:47:15.878Z,14968
2016-09-11T09:48:15.957Z,14896
2016-09-11T09:50:15.712Z,14768
2016-09-11T09:51:16.134Z,14696
2016-09-11T09:52:16.367Z,14652
2016-09-11T09:53:31.024Z,14548
2016-09-11T09:54:15.836Z,14536
2016-09-11T09:55:30.796Z,14436
2016-09-11T09:56:16.527Z,14384
2016-09-11T09:57:16.036Z,14332
2016-09-11T09:58:15.972Z,14284
2016-09-11T09:59:16.307Z,14224
2016-09-11T10:00:16.042Z,14156
2016-09-11T10:02:16.269Z,14016
2016-09-11T10:03:16.463Z,13952
2016-09-11T10:04:16.611Z,13924
2016-09-11T10:05:16.209Z,13884
2016-09-11T10:06:16.248Z,13832
2016-09-11T10:07:31.217Z,13696
2016-09-11T10:08:16.630Z,13632
2016-09-11T10:09:31.285Z,13536
2016-09-11T10:10:16.765Z,13480
2016-09-11T10:11:31.359Z,13384
2016-09-11T10:12:16.457Z,13336
2016-09-11T10:13:16.495Z,13240
2016-09-11T10:14:16.529Z,13156
2016-09-11T10:15:16.640Z,13056
2016-09-11T10:17:16.634Z,12980
2016-09-11T10:18:17.081Z,12920
2016-09-11T10:19:17.049Z,12848
2016-09-11T10:20:16.760Z,12764
2016-09-11T10:21:16.779Z,12704
2016-09-11T10:22:17.163Z,12620
2016-09-11T10:23:16.855Z,12552
2016-09-11T10:24:16.937Z,12508
2016-09-11T10:25:17.007Z,12444
2016-09-11T10:26:17.306Z,12368
2016-09-11T10:27:31.917Z,12304
2016-09-11T10:28:17.360Z,12228
2016-09-11T10:29:17.418Z,12160
2016-09-11T10:30:17.093Z,12084
2016-09-11T10:31:17.130Z,12016
2016-09-11T10:33:17.584Z,11880
2016-09-11T10:34:17.568Z,11796
2016-09-11T10:35:17.343Z,11696
2016-09-11T10:36:17.588Z,11584
2016-09-11T10:37:17.427Z,11504
2016-09-11T10:38:17.358Z,11428
2016-09-11T10:39:17.414Z,11304
2016-09-11T10:40:17.490Z,11044
2016-09-11T10:41:17.488Z,10728
2016-09-11T10:42:17.890Z,10460
2016-09-11T10:43:32.792Z,10168
2016-09-11T10:44:17.586Z,9996
2016-09-11T10:45:17.902Z,9768
2016-09-11T10:47:32.605Z,9304
2016-09-11T10:48:17.709Z,9164
2016-09-11T10:49:17.743Z,9012
2016-09-11T10:50:18.184Z,8864
2016-09-11T10:51:18.453Z,8696
2016-09-11T10:52:17.831Z,8532
2016-09-11T10:53:17.871Z,8380
2016-09-11T10:54:18.207Z,8252
2016-09-11T10:55:18.243Z,8128
2016-09-11T10:56:18.647Z,8012
2016-09-11T10:57:18.050Z,7904
2016-09-11T10:58:18.055Z,7792
2016-09-11T10:59:33.306Z,7680
2016-09-11T11:00:18.105Z,7624
2016-09-11T11:01:18.148Z,7552
2016-09-11T11:02:18.167Z,7492
2016-09-11T11:03:33.489Z,7436
2016-09-11T11:06:18.306Z,7240
2016-09-11T11:07:18.376Z,7196
2016-09-11T11:08:18.382Z,7156
2016-09-11T11:09:18.404Z,7116
2016-09-11T11:10:18.737Z,7116
2016-09-11T11:11:18.790Z,7080
2016-09-11T11:12:18.508Z,7028
2016-09-11T11:13:18.561Z,7016
2016-09-11T11:14:33.522Z,7000
2016-09-11T11:15:18.695Z,6964
2016-09-11T11:16:18.973Z,6944
2016-09-11T11:17:18.751Z,6936
2016-09-11T11:18:18.803Z,6896
2016-09-11T11:20:18.802Z,6912
2016-09-11T11:21:19.119Z,6904
2016-09-11T11:22:19.768Z,6896
2016-09-11T11:23:33.804Z,6872
2016-09-11T11:24:19.221Z,6852
2016-09-11T11:25:19.221Z,6840
2016-09-11T11:26:19.565Z,6844
2016-09-11T11:27:19.752Z,6840
2016-09-11T11:28:19.126Z,6864
2016-09-11T11:29:19.136Z,6840
2016-09-11T11:30:19.246Z,6832
2016-09-11T11:31:19.157Z,6832
2016-09-11T11:32:19.229Z,6836
2016-09-11T11:33:19.207Z,6860
2016-09-11T11:34:19.239Z,6884
2016-09-11T11:35:19.662Z,6872
2016-09-11T11:36:19.312Z,6876
2016-09-11T11:37:19.675Z,6884
2016-09-11T11:38:19.381Z,6864
2016-09-11T11:39:19.410Z,6848
2016-09-11T11:40:19.463Z,6848
2016-09-11T11:41:19.777Z,6848
2016-09-11T11:42:19.544Z,6840
2016-09-11T11:43:24.080Z,6852
2016-09-11T11:44:19.913Z,6900
2016-09-11T11:45:34.858Z,7204
2016-09-11T11:46:49.534Z,7352
2016-09-11T11:47:19.732Z,7384
2016-09-11T11:48:28.169Z,7460
2016-09-11T11:49:20.010Z,7444
2016-09-11T11:50:20.435Z,7440
2016-09-11T11:51:19.876Z,7396
2016-09-11T11:52:20.436Z,7408
2016-09-11T11:53:20.192Z,7452
2016-09-11T11:54:19.903Z,7512
2016-09-11T11:56:20.325Z,7700
2016-09-11T11:57:20.011Z,7872
2016-09-11T11:58:20.042Z,8092
2016-09-11T12:01:20.150Z,8344
2016-09-11T12:03:20.218Z,8872
2016-09-11T12:04:20.241Z,8940
2016-09-11T12:05:20.312Z,8840
2016-09-11T12:07:20.360Z,8556
2016-09-11T12:08:20.376Z,8456
2016-09-11T12:09:20.708Z,8436
2016-09-11T12:10:21.052Z,8528
2016-09-11T12:11:20.466Z,8740
2016-09-11T12:12:20.831Z,8996
2016-09-11T12:13:20.870Z,9180
2016-09-11T12:14:20.582Z,9332
2016-09-11T12:15:20.630Z,9532
2016-09-11T12:16:20.633Z,9612
2016-09-11T12:17:20.675Z,9596
2016-09-11T12:19:20.746Z,9132
2016-09-11T12:20:20.771Z,9060
2016-09-11T12:21:20.837Z,9040
2016-09-11T12:22:21.185Z,8972
2016-09-11T12:23:21.226Z,9028
2016-09-11T12:24:20.917Z,8992
2016-09-11T12:25:20.933Z,8844
2016-09-11T12:26:21.024Z,8488
2016-09-11T12:27:21.020Z,8248
2016-09-11T12:28:21.044Z,8184
2016-09-11T12:29:21.118Z,8120
2016-09-11T12:30:21.758Z,8088
2016-09-11T12:31:21.442Z,8052
2016-09-11T12:32:21.197Z,7940
2016-09-11T12:33:21.212Z,7864
2016-09-11T12:34:36.162Z,7848
2016-09-11T12:35:36.185Z,7912
2016-09-11T12:36:21.625Z,7976
2016-09-11T12:37:21.342Z,8020
2016-09-11T12:38:21.435Z,8104
2016-09-11T12:39:21.399Z,8240
2016-09-11T12:40:21.851Z,8356
2016-09-11T12:41:21.496Z,8500
2016-09-11T12:42:21.835Z,8588
2016-09-11T12:43:21.554Z,8636
2016-09-11T12:44:21.592Z,8664
2016-09-11T12:45:21.623Z,8728
2016-09-11T12:46:21.645Z,8720
2016-09-11T12:47:21.988Z,8568
2016-09-11T12:48:22.009Z,8428
2016-09-11T12:49:36.858Z,8160
2016-09-11T12:50:22.482Z,7988
2016-09-11T12:51:36.745Z,7884
2016-09-11T12:52:37.072Z,7808
2016-09-11T12:53:22.247Z,7732
2016-09-11T12:54:21.925Z,7652
2016-09-11T12:55:21.964Z,7676
2016-09-11T12:56:21.958Z,7676
2016-09-11T12:57:22.039Z,7628
2016-09-11T12:58:22.040Z,7604
2016-09-11T12:59:37.009Z,7600
2016-09-11T13:00:22.229Z,7556
2016-09-11T13:01:22.801Z,7464
2016-09-11T13:02:37.582Z,7364
2016-09-11T13:03:22.210Z,7304
2016-09-11T13:04:22.275Z,7196
2016-09-11T13:05:38.486Z,7084
2016-09-11T13:06:22.318Z,7124
2016-09-11T13:07:22.659Z,7204
2016-09-11T13:08:22.481Z,7316
2016-09-11T13:09:22.409Z,7408
2016-09-11T13:10:37.365Z,7484
2016-09-11T13:11:22.472Z,7560
2016-09-11T13:12:22.499Z,7616
2016-09-11T13:13:22.538Z,7544
2016-09-11T13:14:23.160Z,7492
2016-09-11T13:15:23.020Z,7476
2016-09-11T13:17:22.706Z,7620
2016-09-11T13:18:22.718Z,7616
2016-09-11T13:19:22.736Z,7676
2016-09-11T13:20:37.686Z,7832
2016-09-11T13:21:38.047Z,7972
2016-09-11T13:22:22.830Z,8012
2016-09-11T13:23:22.911Z,7972
2016-09-11T13:24:22.955Z,7948
2016-09-11T13:25:23.272Z,7908
2016-09-11T13:26:23.331Z,7896
2016-09-11T13:27:23.122Z,7848
2016-09-11T13:28:23.040Z,7716
2016-09-11T13:30:23.162Z,7496
2016-09-11T13:31:38.057Z,7416
2016-09-11T13:32:38.086Z,7412
2016-09-11T13:33:23.246Z,7456
2016-09-11T13:35:23.330Z,7576
2016-09-11T13:36:23.595Z,7576
2016-09-11T13:37:38.244Z,7460
2016-09-11T13:38:23.394Z,7384
2016-09-11T13:41:23.462Z,7240
2016-09-11T13:42:23.545Z,7256
2016-09-11T13:44:23.576Z,7232
2016-09-11T13:45:23.598Z,7064
2016-09-11T13:46:23.643Z,7004
2016-09-11T13:47:23.690Z,7000
2016-09-11T13:48:38.932Z,6908
2016-09-11T13:49:23.736Z,6920
2016-09-11T13:50:38.677Z,6820
2016-09-11T13:51:23.984Z,6812
2016-09-11T13:52:23.840Z,6872
2016-09-11T13:53:39.151Z,6992
2016-09-11T13:55:23.941Z,7096
2016-09-11T13:57:39.223Z,7096
2016-09-11T13:58:24.086Z,7092
2016-09-11T13:59:24.051Z,7064
2016-09-11T14:00:24.107Z,7072
2016-09-11T14:01:24.179Z,7056
2016-09-11T14:02:24.516Z,7024
2016-09-11T14:03:24.223Z,6940
2016-09-11T14:04:24.223Z,6792
2016-09-11T14:05:24.262Z,6660
2016-09-11T14:06:24.285Z,6624
2016-09-11T14:07:24.621Z,6716
2016-09-11T14:08:24.527Z,6748
2016-09-11T14:09:39.651Z,6812
2016-09-11T14:10:24.432Z,6880
2016-09-11T14:11:24.462Z,6924
2016-09-11T14:12:24.494Z,6752
2016-09-11T14:13:24.531Z,6412
2016-09-11T14:14:24.912Z,6348
2016-09-11T14:15:24.589Z,6264
2016-09-11T14:16:24.636Z,6220
2016-09-11T14:18:24.878Z,6352
2016-09-11T14:20:25.054Z,6248
2016-09-11T14:21:25.093Z,6164
2016-09-11T14:22:39.866Z,6068
2016-09-11T14:23:25.140Z,6008
2016-09-11T14:24:40.096Z,6016
2016-09-11T14:25:39.843Z,6020
2016-09-11T14:26:24.947Z,5984
2016-09-11T14:27:25.283Z,5932
2016-09-11T14:28:25.306Z,6028
2016-09-11T14:29:39.970Z,6036
2016-09-11T14:30:25.072Z,5996
2016-09-11T14:31:25.141Z,5952
2016-09-11T14:32:25.455Z,5832
2016-09-11T14:33:25.550Z,5780
2016-09-11T14:34:25.216Z,5844
2016-09-11T14:35:25.352Z,5916
2016-09-11T14:36:40.193Z,6000
2016-09-11T14:37:25.312Z,6052
2016-09-11T14:38:25.356Z,6108
2016-09-11T14:39:40.638Z,6180